createdAt,value
2022-12-23T00:30:07.665Z,0
2022-12-23T00:30:48.135Z,0
2022-12-23T00:31:28.607Z,0
2022-12-23T00:32:09.191Z,0
2022-12-23T00:32:49.570Z,0
2022-12-23T00:33:30.036Z,0
2022-12-23T00:34:10.561Z,0
2022-12-23T00:34:51.073Z,0
2022-12-23T00:35:31.521Z,0
2022-12-23T00:36:12.097Z,0
2022-12-23T00:36:52.490Z,0
2022-12-23T00:44:17.840Z,0
2022-12-23T00:44:58.346Z,0
2022-12-23T00:45:38.883Z,0
2022-12-23T00:46:19.475Z,0
2022-12-23T00:46:59.803Z,0
2022-12-23T00:47:40.368Z,0
2022-12-23T00:48:20.840Z,0
2022-12-23T00:49:01.334Z,0
2022-12-23T00:49:41.848Z,0
2022-12-23T00:50:22.317Z,0
2022-12-23T00:57:47.713Z,0
2022-12-23T00:58:28.205Z,0
2022-12-23T00:59:08.718Z,0
2022-12-23T00:59:49.217Z,0
2022-12-23T01:00:29.691Z,0
2022-12-23T01:01:10.224Z,0
2022-12-23T01:01:50.934Z,0
2022-12-23T01:03:11.885Z,0
2022-12-23T01:03:52.226Z,0
2022-12-23T01:04:33.587Z,0
2022-12-23T01:10:37.456Z,0
2022-12-23T01:11:17.982Z,0
2022-12-23T01:11:58.415Z,0
2022-12-23T01:12:38.885Z,0
2022-12-23T01:13:19.368Z,0
2022-12-23T01:13:59.917Z,0
2022-12-23T01:14:40.382Z,0
2022-12-23T01:16:01.382Z,0
2022-12-23T01:16:41.967Z,0
2022-12-23T01:17:22.501Z,0
2022-12-23T01:24:07.442Z,0
2022-12-23T01:24:47.919Z,0
2022-12-23T01:25:28.417Z,0
2022-12-23T01:26:08.923Z,0
2022-12-23T01:26:50.093Z,0
2022-12-23T01:27:29.924Z,0
2022-12-23T01:28:10.406Z,0
2022-12-23T01:28:50.924Z,0
2022-12-23T01:29:31.372Z,0
2022-12-23T01:30:11.856Z,0
2022-12-23T01:30:52.407Z,0
2022-12-23T01:38:18.759Z,0
2022-12-23T01:38:59.275Z,0
2022-12-23T01:39:39.778Z,0
2022-12-23T01:41:00.744Z,0
2022-12-23T01:41:41.201Z,0
2022-12-23T01:42:21.710Z,0
2022-12-23T01:43:02.211Z,0
2022-12-23T01:43:42.680Z,0
2022-12-23T01:50:27.648Z,0
2022-12-23T01:51:08.185Z,0
2022-12-23T01:51:48.646Z,0
2022-12-23T01:52:29.171Z,0
2022-12-23T01:53:09.677Z,0
2022-12-23T01:53:50.161Z,0
2022-12-23T01:54:30.646Z,0
2022-12-23T01:55:11.170Z,0
2022-12-23T01:55:51.615Z,0
2022-12-23T01:56:32.099Z,0
2022-12-23T01:57:12.655Z,0
2022-12-23T02:03:57.577Z,0
2022-12-23T02:04:38.009Z,0
2022-12-23T02:05:18.536Z,0
2022-12-23T02:05:58.970Z,0
2022-12-23T02:07:19.996Z,0
2022-12-23T02:08:00.433Z,0
2022-12-23T02:08:40.953Z,0
2022-12-23T02:10:01.948Z,0
2022-12-23T02:10:42.392Z,0
2022-12-23T02:16:47.784Z,0
2022-12-23T02:18:08.730Z,0
2022-12-23T02:18:49.232Z,0
2022-12-23T02:19:29.715Z,0
2022-12-23T02:20:50.725Z,0
2022-12-23T02:21:31.278Z,0
2022-12-23T02:22:11.749Z,0
2022-12-23T02:23:32.711Z,0
2022-12-23T02:30:17.652Z,0
2022-12-23T02:30:58.239Z,0
2022-12-23T02:31:38.635Z,0
2022-12-23T02:32:19.209Z,0
2022-12-23T02:32:59.677Z,0
2022-12-23T02:33:40.186Z,0
2022-12-23T02:34:20.722Z,0
2022-12-23T02:35:01.168Z,0
2022-12-23T02:35:41.709Z,0
2022-12-23T02:36:22.213Z,0
2022-12-23T02:37:02.679Z,0
2022-12-23T02:42:27.437Z,0
2022-12-23T02:43:07.921Z,0
2022-12-23T02:44:28.883Z,0
2022-12-23T02:45:09.370Z,0
2022-12-23T02:45:49.882Z,0
2022-12-23T02:46:30.396Z,0
2022-12-23T02:47:10.824Z,0
2022-12-23T02:47:51.279Z,0
2022-12-23T02:48:31.792Z,0
2022-12-23T02:49:12.261Z,0
2022-12-23T02:49:52.793Z,0
2022-12-23T02:55:33.539Z,0
2022-12-23T02:56:13.983Z,0
2022-12-23T02:56:54.464Z,0
2022-12-23T02:57:35.024Z,0
2022-12-23T02:58:15.544Z,0
2022-12-23T02:58:56.039Z,0
2022-12-23T02:59:36.517Z,0
2022-12-23T03:00:17.025Z,0
2022-12-23T03:00:57.529Z,0
2022-12-23T03:02:18.750Z,0
2022-12-23T03:07:18.580Z,0
2022-12-23T03:07:55.826Z,0
2022-12-23T03:08:36.420Z,0
2022-12-23T03:09:16.992Z,0
2022-12-23T03:09:57.443Z,0
2022-12-23T03:12:10.252Z,0
2022-12-23T03:12:50.766Z,0
2022-12-23T03:13:31.255Z,0
2022-12-23T03:14:11.726Z,0
2022-12-23T03:15:33.630Z,0
2022-12-23T03:16:14.229Z,0
2022-12-23T03:17:35.050Z,0
2022-12-23T03:18:15.591Z,0
2022-12-23T03:18:56.076Z,0
2022-12-23T03:19:36.544Z,0
2022-12-23T03:20:57.524Z,0
2022-12-23T03:21:38.019Z,0
2022-12-23T03:29:03.461Z,0
2022-12-23T03:29:44.002Z,0
2022-12-23T03:30:24.494Z,0
2022-12-23T03:31:05.009Z,0
2022-12-23T03:31:45.408Z,0
2022-12-23T03:32:25.922Z,0
2022-12-23T03:33:07.331Z,0
2022-12-23T03:33:47.803Z,0
2022-12-23T03:34:28.332Z,0
2022-12-23T03:41:13.276Z,0
2022-12-23T03:41:53.735Z,0
2022-12-23T03:42:34.271Z,0
2022-12-23T03:43:14.782Z,0
2022-12-23T03:43:55.287Z,0
2022-12-23T03:44:35.813Z,0
2022-12-23T03:45:56.734Z,0
2022-12-23T03:46:37.357Z,0
2022-12-23T03:47:17.722Z,0
2022-12-23T03:54:43.113Z,0
2022-12-23T03:55:23.627Z,0
2022-12-23T03:56:04.165Z,0
2022-12-23T03:56:44.644Z,0
2022-12-23T03:57:25.170Z,0
2022-12-23T03:58:05.673Z,0
2022-12-23T03:58:46.140Z,0
2022-12-23T03:59:26.658Z,0
2022-12-23T04:00:07.185Z,0
2022-12-23T04:00:47.707Z,0
2022-12-23T04:01:28.254Z,0
2022-12-23T04:08:13.092Z,0
2022-12-23T04:08:53.629Z,0
2022-12-23T04:09:34.093Z,0
2022-12-23T04:10:14.627Z,0
2022-12-23T04:10:55.084Z,0
2022-12-23T04:11:35.604Z,0
2022-12-23T04:12:16.089Z,0
2022-12-23T04:12:56.598Z,0
2022-12-23T04:13:37.094Z,0
2022-12-23T04:14:17.574Z,0
2022-12-23T04:14:58.076Z,0
2022-12-23T04:22:23.557Z,0
2022-12-23T04:23:04.033Z,0
2022-12-23T04:23:44.552Z,0
2022-12-23T04:24:25.067Z,0
2022-12-23T04:25:05.570Z,0
2022-12-23T04:25:46.060Z,0
2022-12-23T04:26:26.537Z,0
2022-12-23T04:27:07.043Z,0
2022-12-23T04:27:47.516Z,0
2022-12-23T04:28:28.027Z,0
2022-12-23T04:35:13.187Z,0
2022-12-23T04:35:53.723Z,0
2022-12-23T04:36:34.203Z,0
2022-12-23T04:37:14.693Z,0
2022-12-23T04:37:55.199Z,0
2022-12-23T04:38:35.649Z,0
2022-12-23T04:39:16.150Z,0
2022-12-23T04:39:56.649Z,0
2022-12-23T04:40:37.188Z,0
2022-12-23T04:41:17.653Z,0
2022-12-23T04:41:58.117Z,0
2022-12-23T04:48:43.141Z,0
2022-12-23T04:49:23.636Z,0
2022-12-23T04:50:04.143Z,0
2022-12-23T04:50:44.675Z,0
2022-12-23T04:51:25.165Z,0
2022-12-23T04:52:05.659Z,0
2022-12-23T04:52:46.168Z,0
2022-12-23T04:53:26.682Z,0
2022-12-23T04:54:07.151Z,0
2022-12-23T04:54:47.670Z,0
2022-12-23T05:02:13.431Z,0
2022-12-23T05:02:53.841Z,0
2022-12-23T05:03:34.286Z,0
2022-12-23T05:04:15.537Z,0
2022-12-23T05:04:55.972Z,0
2022-12-23T05:05:36.577Z,0
2022-12-23T05:06:17.019Z,0
2022-12-23T05:06:57.510Z,0
2022-12-23T05:07:38.009Z,0
2022-12-23T05:15:03.508Z,0
2022-12-23T05:15:43.960Z,0
2022-12-23T05:16:24.525Z,0
2022-12-23T05:17:07.589Z,0
2022-12-23T05:17:45.413Z,0
2022-12-23T05:18:25.922Z,0
2022-12-23T05:19:06.461Z,0
2022-12-23T05:19:46.943Z,0
2022-12-23T05:20:27.520Z,0
2022-12-23T05:28:51.013Z,0
2022-12-23T05:29:31.726Z,0
2022-12-23T05:30:12.174Z,0
2022-12-23T05:30:52.695Z,0
2022-12-23T05:31:33.265Z,0
2022-12-23T05:32:55.489Z,0
2022-12-23T05:39:40.810Z,0
2022-12-23T05:40:23.958Z,0
2022-12-23T05:41:01.749Z,0
2022-12-23T05:41:42.235Z,0
2022-12-23T05:42:22.717Z,0
2022-12-23T05:43:03.270Z,0
2022-12-23T05:43:43.713Z,0
2022-12-23T05:44:24.284Z,0
2022-12-23T05:45:04.797Z,0
2022-12-23T05:45:45.448Z,0
2022-12-23T05:52:31.208Z,0
2022-12-23T05:53:11.813Z,0
2022-12-23T06:32:36.198Z,0
2022-12-23T06:33:11.184Z,0
2022-12-23T06:33:51.674Z,0
2022-12-23T06:34:32.122Z,0
2022-12-23T06:35:12.706Z,0
2022-12-23T06:35:53.214Z,0
2022-12-23T06:36:33.745Z,0
2022-12-23T06:37:14.519Z,0
2022-12-23T06:43:59.878Z,0
2022-12-23T06:47:29.386Z,0
2022-12-23T06:48:11.192Z,0
2022-12-23T06:48:51.452Z,0
2022-12-23T06:49:33.647Z,0
2022-12-23T06:53:38.871Z,0
2022-12-23T06:54:20.135Z,0
2022-12-23T06:55:00.529Z,0
2022-12-23T06:55:41.167Z,0
2022-12-23T06:56:22.640Z,0
2022-12-23T06:57:03.207Z,0
2022-12-23T06:57:44.655Z,0
2022-12-23T06:59:09.051Z,0
2022-12-23T06:59:49.659Z,0
2022-12-23T07:00:30.433Z,0
2022-12-23T07:01:11.637Z,0
2022-12-23T07:01:52.483Z,0
2022-12-23T07:04:27.883Z,0
2022-12-23T07:05:08.333Z,0
2022-12-23T07:05:49.140Z,0
2022-12-23T07:06:29.546Z,0
2022-12-23T07:07:10.151Z,0
2022-12-23T07:07:50.660Z,0
2022-12-23T07:08:32.122Z,0
2022-12-23T07:09:12.622Z,0
2022-12-23T07:13:17.909Z,0
2022-12-23T07:13:59.262Z,0
2022-12-23T07:14:39.815Z,4
2022-12-23T07:17:53.879Z,4
2022-12-23T07:18:34.471Z,4
2022-12-23T07:19:14.978Z,0
2022-12-23T07:19:55.656Z,4
2022-12-23T07:20:36.208Z,4
2022-12-23T07:21:24.753Z,4
2022-12-23T07:21:57.179Z,4
2022-12-23T07:22:37.761Z,4
2022-12-23T07:23:18.308Z,4
2022-12-23T07:23:59.460Z,4
2022-12-23T07:29:23.672Z,8
2022-12-23T07:30:04.201Z,8
2022-12-23T07:30:44.745Z,8
2022-12-23T07:31:25.387Z,8
2022-12-23T07:32:05.913Z,8
2022-12-23T07:32:46.372Z,8
2022-12-23T07:33:26.877Z,8
2022-12-23T07:34:07.416Z,8
2022-12-23T07:34:47.910Z,8
2022-12-23T07:35:28.417Z,8
2022-12-23T07:42:43.166Z,12
2022-12-23T07:42:54.352Z,12
2022-12-23T07:43:34.874Z,12
2022-12-23T07:44:15.428Z,16
2022-12-23T07:44:55.912Z,16
2022-12-23T07:45:36.473Z,16
2022-12-23T07:46:17.082Z,16
2022-12-23T07:46:57.506Z,16
2022-12-23T07:47:38.009Z,20
2022-12-23T07:55:03.853Z,28
2022-12-23T07:55:44.423Z,28
2022-12-23T07:56:24.945Z,28
2022-12-23T07:57:05.513Z,32
2022-12-23T07:57:46.043Z,32
2022-12-23T07:58:26.575Z,32
2022-12-23T07:59:07.090Z,32
2022-12-23T07:59:47.627Z,32
2022-12-23T08:00:28.159Z,32
2022-12-23T08:01:08.727Z,32
2022-12-23T08:07:53.948Z,56
2022-12-23T08:08:34.564Z,52
2022-12-23T08:09:15.064Z,52
2022-12-23T08:09:55.770Z,56
2022-12-23T08:10:36.306Z,60
2022-12-23T08:11:16.847Z,60
2022-12-23T08:11:57.401Z,60
2022-12-23T08:12:37.921Z,64
2022-12-23T08:13:18.417Z,64
2022-12-23T08:13:58.916Z,68
2022-12-23T08:20:03.633Z,68
2022-12-23T08:20:44.206Z,68
2022-12-23T08:21:24.721Z,68
2022-12-23T08:22:05.300Z,72
2022-12-23T08:22:45.834Z,76
2022-12-23T08:23:26.433Z,76
2022-12-23T08:24:06.930Z,76
2022-12-23T08:24:47.461Z,76
2022-12-23T08:25:27.981Z,80
2022-12-23T08:31:35.699Z,84
2022-12-23T08:33:49.083Z,84
2022-12-23T08:34:30.327Z,80
2022-12-23T08:35:10.916Z,80
2022-12-23T08:35:51.480Z,76
2022-12-23T08:36:32.044Z,76
2022-12-23T08:37:12.654Z,72
2022-12-23T08:37:53.322Z,68
2022-12-23T08:38:34.011Z,72
2022-12-23T08:43:36.068Z,48
2022-12-23T08:44:16.255Z,44
2022-12-23T08:44:57.342Z,44
2022-12-23T08:45:39.985Z,44
2022-12-23T08:48:12.382Z,56
2022-12-23T08:52:32.994Z,56
2022-12-23T08:53:13.572Z,56
2022-12-23T08:53:59.761Z,60
2022-12-23T08:54:34.568Z,56
2022-12-23T08:55:16.658Z,60
2022-12-23T08:55:57.122Z,56
2022-12-23T08:56:38.304Z,56
2022-12-23T09:02:40.605Z,76
2022-12-23T09:03:21.299Z,76
2022-12-23T09:04:01.886Z,76
2022-12-23T09:04:42.248Z,80
2022-12-23T09:10:07.394Z,104
2022-12-23T09:10:47.266Z,108
2022-12-23T09:11:27.841Z,108
2022-12-23T09:14:41.592Z,108
2022-12-23T09:15:22.088Z,104
2022-12-23T09:16:02.947Z,104
2022-12-23T09:16:43.478Z,104
2022-12-23T09:17:24.982Z,100
2022-12-23T09:18:05.503Z,104
2022-12-23T09:18:45.971Z,104
2022-12-23T09:19:26.530Z,104
2022-12-23T09:25:31.347Z,116
2022-12-23T09:26:11.991Z,116
2022-12-23T09:26:52.497Z,116
2022-12-23T09:27:33.170Z,116
2022-12-23T09:28:13.751Z,116
2022-12-23T09:28:54.263Z,116
2022-12-23T09:29:35.575Z,116
2022-12-23T09:30:16.018Z,112
2022-12-23T09:30:56.667Z,116
2022-12-23T09:33:43.164Z,116
2022-12-23T09:34:24.431Z,112
2022-12-23T09:41:52.546Z,96
2022-12-23T09:42:32.981Z,104
2022-12-23T09:43:13.466Z,108
2022-12-23T09:43:54.576Z,112
2022-12-23T09:44:35.243Z,120
2022-12-23T09:45:15.765Z,124
2022-12-23T09:45:56.451Z,124
2022-12-23T09:52:01.775Z,124
2022-12-23T09:52:42.381Z,128
2022-12-23T09:53:23.000Z,128
2022-12-23T09:54:03.577Z,132
2022-12-23T09:54:44.154Z,144
2022-12-23T09:55:24.669Z,152
2022-12-23T09:58:43.855Z,200
2022-12-23T09:59:24.388Z,204
2022-12-23T10:00:04.937Z,208
2022-12-23T10:03:44.847Z,208
2022-12-23T10:04:25.274Z,208
2022-12-23T10:05:05.809Z,208
2022-12-23T10:05:46.282Z,212
2022-12-23T10:06:26.857Z,212
2022-12-23T10:07:07.327Z,216
2022-12-23T10:07:47.928Z,212
2022-12-23T10:08:29.425Z,208
2022-12-23T10:09:09.999Z,208
2022-12-23T10:15:15.400Z,280
2022-12-23T10:15:55.980Z,292
2022-12-23T10:16:36.484Z,300
2022-12-23T10:17:17.025Z,304
2022-12-23T10:17:57.649Z,312
2022-12-23T10:18:38.168Z,308
2022-12-23T10:19:18.703Z,308
2022-12-23T10:19:59.254Z,300
2022-12-23T10:20:39.838Z,288
2022-12-23T10:21:20.487Z,272
2022-12-23T10:25:25.210Z,220
2022-12-23T10:26:05.728Z,220
2022-12-23T10:26:46.391Z,216
2022-12-23T10:27:26.907Z,208
2022-12-23T10:28:07.342Z,200
2022-12-23T10:28:48.000Z,200
2022-12-23T10:29:28.524Z,200
2022-12-23T10:30:26.931Z,200
2022-12-23T10:31:10.832Z,200
2022-12-23T10:33:35.271Z,192
2022-12-23T10:34:15.926Z,200
2022-12-23T10:34:56.580Z,208
2022-12-23T10:35:37.198Z,216
2022-12-23T10:36:18.140Z,224
2022-12-23T10:36:59.074Z,236
2022-12-23T10:40:13.576Z,268
2022-12-23T10:40:54.889Z,276
2022-12-23T10:41:35.529Z,288
2022-12-23T10:42:16.018Z,300
2022-12-23T10:42:56.542Z,312
2022-12-23T10:43:37.281Z,320
2022-12-23T10:44:17.872Z,324
2022-12-23T10:44:58.382Z,324
2022-12-23T10:52:56.987Z,212
2022-12-23T10:53:37.668Z,200
2022-12-23T10:54:18.268Z,184
2022-12-23T10:54:58.780Z,168
2022-12-23T10:55:39.270Z,152
2022-12-23T10:56:19.899Z,148
2022-12-23T10:57:00.405Z,144
2022-12-23T10:57:40.813Z,152
2022-12-23T11:00:58.777Z,232
2022-12-23T11:01:39.608Z,252
2022-12-23T11:02:20.032Z,264
2022-12-23T11:03:00.409Z,276
2022-12-23T11:03:40.956Z,276
2022-12-23T11:04:21.410Z,272
2022-12-23T11:05:01.935Z,260
2022-12-23T11:05:42.773Z,244
2022-12-23T11:06:23.270Z,224
2022-12-23T11:13:08.698Z,172
2022-12-23T11:13:49.361Z,160
2022-12-23T11:14:29.927Z,148
2022-12-23T11:15:10.437Z,132
2022-12-23T11:15:51.017Z,124
2022-12-23T11:16:31.532Z,116
2022-12-23T11:17:12.022Z,108
2022-12-23T11:17:52.543Z,104
2022-12-23T11:18:36.297Z,104
2022-12-23T11:19:13.547Z,104
2022-12-23T11:25:58.706Z,144
2022-12-23T11:26:39.383Z,156
2022-12-23T11:27:19.876Z,168
2022-12-23T11:28:00.380Z,180
2022-12-23T11:28:40.920Z,184
2022-12-23T11:29:21.381Z,184
2022-12-23T11:30:01.946Z,180
2022-12-23T11:30:42.555Z,172
2022-12-23T11:31:23.035Z,156
2022-12-23T11:32:03.589Z,140
2022-12-23T11:37:28.681Z,100
2022-12-23T11:38:09.235Z,108
2022-12-23T11:38:49.792Z,112
2022-12-23T11:39:30.323Z,112
2022-12-23T11:40:10.798Z,116
2022-12-23T11:40:51.331Z,120
2022-12-23T11:41:31.805Z,120
2022-12-23T11:42:55.203Z,128
2022-12-23T11:43:33.286Z,140
2022-12-23T11:50:18.481Z,232
2022-12-23T11:50:59.020Z,252
2022-12-23T11:51:39.485Z,280
2022-12-23T11:52:20.080Z,316
2022-12-23T11:53:00.612Z,352
2022-12-23T11:53:41.116Z,392
2022-12-23T11:54:21.646Z,424
2022-12-23T12:32:43.054Z,192
2022-12-23T12:33:23.509Z,180
2022-12-23T12:34:04.020Z,180
2022-12-23T12:34:44.532Z,180
2022-12-23T12:35:25.068Z,196
2022-12-23T12:36:05.828Z,216
2022-12-23T12:36:46.040Z,244
2022-12-23T12:37:26.485Z,280
2022-12-23T12:38:06.967Z,316
2022-12-23T12:38:47.564Z,352
2022-12-23T12:39:28.067Z,372
2022-12-23T12:46:13.138Z,232
2022-12-23T12:46:53.631Z,224
2022-12-23T12:47:53.160Z,216
2022-12-23T12:48:18.467Z,208
2022-12-23T12:48:55.150Z,208
2022-12-23T12:49:35.665Z,200
2022-12-23T12:50:16.135Z,192
2022-12-23T12:50:56.616Z,184
2022-12-23T12:51:37.138Z,188
2022-12-23T12:52:17.642Z,188
2022-12-23T12:52:58.184Z,200
2022-12-23T12:59:02.772Z,84
2022-12-23T12:59:43.303Z,84
2022-12-23T13:00:23.781Z,80
2022-12-23T13:01:44.848Z,88
2022-12-23T13:02:25.346Z,96
2022-12-23T13:03:05.819Z,104
2022-12-23T13:03:46.313Z,100
2022-12-23T13:04:26.813Z,92
2022-12-23T13:05:07.275Z,88
2022-12-23T13:05:53.491Z,76
2022-12-23T13:12:32.899Z,88
2022-12-23T13:13:13.412Z,96
2022-12-23T13:13:53.969Z,100
2022-12-23T13:14:34.486Z,96
2022-12-23T13:15:14.986Z,88
2022-12-23T13:15:55.569Z,80
2022-12-23T13:16:36.146Z,88
2022-12-23T13:18:01.766Z,100
2022-12-23T13:18:37.582Z,100
2022-12-23T13:19:18.167Z,96
2022-12-23T13:23:43.907Z,164
2022-12-23T13:24:19.122Z,168
2022-12-23T13:24:59.660Z,168
2022-12-23T13:25:40.132Z,160
2022-12-23T13:26:20.672Z,156
2022-12-23T13:27:01.170Z,156
2022-12-23T13:27:41.696Z,152
2022-12-23T13:28:22.153Z,156
2022-12-23T13:29:02.716Z,156
2022-12-23T13:29:43.200Z,160
2022-12-23T13:36:28.349Z,100
2022-12-23T13:37:08.840Z,92
2022-12-23T13:37:49.345Z,88
2022-12-23T13:38:29.851Z,84
2022-12-23T13:39:10.409Z,88
2022-12-23T13:39:50.941Z,84
2022-12-23T13:41:11.975Z,72
2022-12-23T13:41:52.496Z,68
2022-12-23T13:42:33.034Z,64
2022-12-23T13:43:13.543Z,56
2022-12-23T13:49:58.707Z,68
2022-12-23T13:50:39.152Z,80
2022-12-23T13:51:19.668Z,88
2022-12-23T13:52:00.197Z,96
2022-12-23T13:52:40.706Z,116
2022-12-23T13:53:21.228Z,140
2022-12-23T13:54:04.700Z,156
2022-12-23T13:54:42.315Z,148
2022-12-23T13:55:22.833Z,136
2022-12-23T13:56:03.340Z,120
2022-12-23T14:02:08.710Z,40
2022-12-23T14:02:49.135Z,44
2022-12-23T14:03:29.548Z,40
2022-12-23T14:04:10.044Z,40
2022-12-23T14:04:50.585Z,36
2022-12-23T14:05:31.109Z,32
2022-12-23T14:06:11.621Z,40
2022-12-23T14:06:52.146Z,44
2022-12-23T14:07:32.613Z,52
2022-12-23T14:08:13.106Z,56
2022-12-23T14:08:53.590Z,52
2022-12-23T14:15:38.704Z,88
2022-12-23T14:16:19.278Z,84
2022-12-23T14:16:59.699Z,84
2022-12-23T14:17:40.173Z,80
2022-12-23T14:18:20.660Z,84
2022-12-23T14:19:01.151Z,84
2022-12-23T14:19:41.670Z,92
2022-12-23T14:20:22.206Z,124
2022-12-23T14:21:02.769Z,160
2022-12-23T14:21:43.272Z,168
2022-12-23T14:29:08.789Z,32
2022-12-23T14:29:49.274Z,28
2022-12-23T14:30:30.300Z,28
2022-12-23T14:31:10.907Z,28
2022-12-23T14:31:51.308Z,24
2022-12-23T14:32:31.834Z,24
2022-12-23T14:33:12.318Z,28
2022-12-23T14:33:52.805Z,32
2022-12-23T14:34:33.372Z,36
2022-12-23T14:41:18.496Z,68
2022-12-23T14:42:05.393Z,60
2022-12-23T14:42:39.495Z,56
2022-12-23T14:43:20.726Z,40
2022-12-23T14:44:00.718Z,36
2022-12-23T14:44:41.246Z,36
2022-12-23T14:45:21.724Z,36
2022-12-23T14:46:02.291Z,40
2022-12-23T14:46:42.806Z,36
2022-12-23T14:47:23.252Z,28
2022-12-23T14:54:08.361Z,48
2022-12-23T14:56:05.937Z,56
2022-12-23T14:56:46.437Z,56
2022-12-23T14:57:26.992Z,48
2022-12-23T14:58:07.956Z,44
2022-12-23T15:02:10.421Z,40
2022-12-23T15:02:50.931Z,40
2022-12-23T15:03:31.481Z,40
2022-12-23T15:04:11.868Z,40
2022-12-23T15:04:52.363Z,36
2022-12-23T15:05:32.883Z,32
2022-12-23T15:06:13.390Z,32
2022-12-23T15:06:53.871Z,32
2022-12-23T15:07:34.415Z,36
2022-12-23T15:08:14.900Z,40
2022-12-23T15:08:55.373Z,40
2022-12-23T15:15:40.372Z,16
2022-12-23T15:16:20.844Z,16
2022-12-23T15:17:01.269Z,20
2022-12-23T15:17:41.792Z,20
2022-12-23T15:18:22.266Z,20
2022-12-23T15:19:02.795Z,12
2022-12-23T15:19:43.281Z,16
2022-12-23T15:20:23.764Z,16
2022-12-23T15:21:04.270Z,16
2022-12-23T15:21:47.510Z,16
2022-12-23T15:22:32.010Z,16
2022-12-23T15:29:10.279Z,4
2022-12-23T15:29:50.790Z,8
2022-12-23T15:30:31.303Z,4
2022-12-23T15:31:11.850Z,4
2022-12-23T15:31:52.465Z,4
2022-12-23T15:32:32.811Z,4
2022-12-23T15:33:35.333Z,4
2022-12-23T15:34:03.293Z,4
2022-12-23T15:34:34.261Z,4
2022-12-23T15:35:14.806Z,4
2022-12-23T15:35:55.471Z,4
2022-12-23T15:43:20.619Z,0
2022-12-23T15:44:01.107Z,0
2022-12-23T15:44:41.698Z,0
2022-12-23T15:45:22.131Z,4
2022-12-23T15:46:02.665Z,0
2022-12-23T15:46:43.153Z,0
2022-12-23T15:47:23.611Z,4
2022-12-23T15:48:44.636Z,0
2022-12-23T15:49:25.126Z,0
2022-12-23T15:50:05.621Z,0
2022-12-23T15:56:50.455Z,0
2022-12-23T15:57:30.952Z,0
2022-12-23T15:58:11.483Z,0
2022-12-23T15:58:51.962Z,0
2022-12-23T15:59:32.441Z,0
2022-12-23T16:00:12.932Z,0
2022-12-23T16:00:53.467Z,0
2022-12-23T16:01:34.026Z,0
2022-12-23T16:02:40.768Z,0
2022-12-23T16:03:03.867Z,0
2022-12-23T16:03:35.520Z,0
2022-12-23T16:10:20.253Z,0
2022-12-23T16:11:00.744Z,0
2022-12-23T16:11:41.220Z,0
2022-12-23T16:12:21.776Z,0
2022-12-23T16:13:02.212Z,0
2022-12-23T16:13:47.180Z,0
2022-12-23T16:14:23.176Z,0
2022-12-23T16:15:03.670Z,0
2022-12-23T16:15:44.386Z,0
2022-12-23T16:16:24.682Z,0
2022-12-23T16:17:05.145Z,0
2022-12-23T16:23:50.503Z,0
2022-12-23T16:24:31.001Z,0
2022-12-23T16:25:11.535Z,0
2022-12-23T16:25:52.005Z,0
2022-12-23T16:26:32.440Z,0
2022-12-23T16:27:12.966Z,0
2022-12-23T16:27:53.465Z,0
2022-12-23T16:28:33.935Z,0
2022-12-23T16:29:14.400Z,0
2022-12-23T16:29:54.927Z,0
2022-12-23T16:30:35.461Z,0
2022-12-23T16:37:20.397Z,0
2022-12-23T16:38:00.810Z,0
2022-12-23T16:38:41.288Z,0
2022-12-23T16:39:21.823Z,0
2022-12-23T16:40:02.292Z,0
2022-12-23T16:40:42.808Z,0
2022-12-23T16:41:23.252Z,0
2022-12-23T16:42:03.747Z,0
2022-12-23T16:42:44.234Z,0
2022-12-23T16:43:24.732Z,0
2022-12-23T16:44:05.232Z,0
2022-12-23T16:51:30.690Z,0
2022-12-23T16:52:11.199Z,0
2022-12-23T16:52:51.667Z,0
2022-12-23T16:53:32.185Z,0
2022-12-23T16:54:12.661Z,0
2022-12-23T16:54:53.156Z,0
2022-12-23T16:55:33.625Z,0
2022-12-23T16:56:14.270Z,0
2022-12-23T16:56:54.657Z,0
2022-12-23T16:57:35.124Z,0
2022-12-23T18:34:24.631Z,0
2022-12-23T18:35:05.041Z,0
2022-12-23T18:35:45.574Z,0
2022-12-23T18:36:26.192Z,0
2022-12-23T18:37:06.603Z,0
2022-12-23T18:37:47.125Z,0
2022-12-23T18:38:27.629Z,0
2022-12-23T18:39:08.087Z,0
2022-12-23T18:39:48.597Z,0
2022-12-23T18:40:32.661Z,0
2022-12-23T18:47:54.722Z,0
2022-12-23T18:48:35.224Z,0
2022-12-23T18:49:15.770Z,0
2022-12-23T18:49:56.248Z,0
2022-12-23T18:50:36.703Z,0
2022-12-23T18:51:17.222Z,0
2022-12-23T18:51:57.730Z,0
2022-12-23T18:52:38.210Z,0
2022-12-23T18:53:59.182Z,0
2022-12-23T18:54:39.681Z,0
2022-12-23T19:00:04.667Z,0
2022-12-23T19:00:44.997Z,0
2022-12-23T19:01:25.647Z,0
2022-12-23T19:02:06.190Z,0
2022-12-23T19:02:46.717Z,0
2022-12-23T19:03:27.158Z,0
2022-12-23T19:04:07.930Z,0
2022-12-23T19:04:49.080Z,0
2022-12-23T19:11:34.310Z,0
2022-12-23T19:12:14.802Z,0
2022-12-23T19:12:55.312Z,0
2022-12-23T19:13:35.814Z,0
2022-12-23T19:14:16.355Z,0
2022-12-23T19:14:56.828Z,0
2022-12-23T19:15:37.717Z,0
2022-12-23T19:16:18.245Z,0
2022-12-23T19:16:58.681Z,0
2022-12-23T19:17:39.226Z,0
2022-12-23T19:24:24.356Z,0
2022-12-23T19:25:06.451Z,0
2022-12-23T19:25:52.417Z,0
2022-12-23T19:26:25.836Z,0
2022-12-23T19:27:06.365Z,0
2022-12-23T19:27:46.851Z,0
2022-12-23T19:28:27.357Z,0
2022-12-23T19:29:07.884Z,0
2022-12-23T19:29:48.377Z,0
2022-12-23T19:30:28.998Z,0
2022-12-23T19:31:09.568Z,0
2022-12-23T19:37:54.544Z,0
2022-12-23T19:38:35.060Z,0
2022-12-23T19:39:16.467Z,0
2022-12-23T19:39:56.509Z,0
2022-12-23T19:40:37.051Z,0
2022-12-23T19:41:17.537Z,0
2022-12-23T19:41:58.075Z,0
2022-12-23T19:42:38.537Z,0
2022-12-23T19:43:21.125Z,0
2022-12-23T19:47:24.563Z,0
2022-12-23T19:48:05.019Z,0
2022-12-23T19:48:45.579Z,0
2022-12-23T19:49:26.022Z,0
2022-12-23T19:50:06.509Z,0
2022-12-23T19:50:47.007Z,0
2022-12-23T19:51:27.516Z,0
2022-12-23T19:52:08.037Z,0
2022-12-23T19:52:48.484Z,0
2022-12-23T19:53:28.976Z,0
2022-12-23T19:54:09.510Z,0
2022-12-23T20:00:54.503Z,0
2022-12-23T20:01:35.167Z,0
2022-12-23T20:02:15.628Z,0
2022-12-23T20:02:58.831Z,0
2022-12-23T20:03:36.535Z,0
2022-12-23T20:04:17.023Z,0
2022-12-23T20:04:57.575Z,0
2022-12-23T20:05:38.030Z,0
2022-12-23T20:06:18.525Z,0
2022-12-23T20:06:58.998Z,0
2022-12-23T20:07:39.536Z,0
2022-12-23T20:14:27.775Z,0
2022-12-23T20:15:05.168Z,0
2022-12-23T20:15:45.694Z,0
2022-12-23T20:16:26.280Z,0
2022-12-23T20:17:06.625Z,0
2022-12-23T20:17:47.125Z,0
2022-12-23T20:18:27.642Z,0
2022-12-23T20:19:08.174Z,0
2022-12-23T20:22:42.112Z,0
2022-12-23T20:23:22.591Z,0
2022-12-23T20:24:03.108Z,0
2022-12-23T20:24:43.605Z,0
2022-12-23T20:25:24.076Z,0
2022-12-23T20:26:04.586Z,0
2022-12-23T20:26:45.055Z,0
2022-12-23T20:27:27.994Z,0
2022-12-23T20:28:07.078Z,0
2022-12-23T20:31:20.518Z,0
2022-12-23T20:32:02.387Z,0
2022-12-23T20:32:42.906Z,0
2022-12-23T20:33:23.378Z,0
2022-12-23T20:34:03.904Z,0
2022-12-23T20:34:44.476Z,0
2022-12-23T20:35:24.975Z,0
2022-12-23T20:42:10.418Z,0
2022-12-23T20:42:51.064Z,0
2022-12-23T20:43:31.829Z,0
2022-12-23T20:44:52.539Z,0
2022-12-23T20:45:33.093Z,0
2022-12-23T20:46:13.590Z,0
2022-12-23T20:46:54.161Z,0
2022-12-23T20:47:34.776Z,0
2022-12-23T20:48:15.251Z,0
2022-12-23T20:54:19.959Z,0
2022-12-23T20:55:00.459Z,0
2022-12-23T20:55:41.099Z,0
2022-12-23T20:56:21.665Z,0
2022-12-23T20:57:02.304Z,0
2022-12-23T20:57:43.066Z,0
2022-12-23T20:58:23.629Z,0
2022-12-23T20:59:04.207Z,0
2022-12-23T21:00:25.200Z,0
2022-12-23T21:03:10.162Z,0
2022-12-23T21:03:44.966Z,0
2022-12-23T21:04:25.451Z,0
2022-12-23T21:05:05.943Z,0
2022-12-23T21:05:46.433Z,0
2022-12-23T21:06:26.956Z,0
2022-12-23T21:07:07.437Z,0
2022-12-23T21:07:47.941Z,0
2022-12-23T21:08:28.495Z,0
2022-12-23T21:09:08.974Z,0
2022-12-23T21:09:49.548Z,0
2022-12-23T21:13:54.236Z,0
2022-12-23T21:14:34.759Z,0
2022-12-23T21:15:15.303Z,0
2022-12-23T21:15:55.817Z,0
2022-12-23T21:16:36.488Z,0
2022-12-23T21:17:16.809Z,0
2022-12-23T21:17:57.348Z,0
2022-12-23T21:18:37.839Z,0
2022-12-23T21:19:18.309Z,0
2022-12-23T21:20:01.921Z,0
2022-12-23T21:20:39.333Z,0
2022-12-23T21:27:24.465Z,0
2022-12-23T21:28:05.011Z,0
2022-12-23T21:28:45.554Z,0
2022-12-23T21:29:26.044Z,0
2022-12-23T21:30:06.570Z,0
2022-12-23T21:30:47.094Z,0
2022-12-23T21:31:27.640Z,0
2022-12-23T21:32:08.084Z,0
2022-12-23T21:32:48.602Z,0
2022-12-23T21:33:29.080Z,0
2022-12-23T21:40:14.228Z,0
2022-12-23T21:40:54.715Z,0
2022-12-23T21:41:35.254Z,0
2022-12-23T21:42:15.723Z,0
2022-12-23T21:42:56.292Z,0